sensor_id;sensor_type;location;lat;lon;timestamp;pressure;altitude;pressure_sealevel;temperature;humidity
61898;BME280;47850;50.274;18.908;2023-02-15T00:00:10;99755.96;;;2.06;81.82
61898;BME280;47850;50.274;18.908;2023-02-15T00:03:18;99756.04;;;2.07;81.58
61898;BME280;47850;50.274;18.908;2023-02-15T00:05:46;99753.44;;;2.06;81.55
61898;BME280;47850;50.274;18.908;2023-02-15T00:08:14;99753.29;;;2.05;81.42
61898;BME280;47850;50.274;18.908;2023-02-15T00:10:42;99754.17;;;2.00;81.22
61898;BME280;47850;50.274;18.908;2023-02-15T00:13:09;99755.90;;;1.97;81.22
61898;BME280;47850;50.274;18.908;2023-02-15T00:15:37;99752.73;;;1.94;81.06
61898;BME280;47850;50.274;18.908;2023-02-15T00:18:05;99751.79;;;1.91;81.46
61898;BME280;47850;50.274;18.908;2023-02-15T00:20:33;99751.64;;;1.89;81.52
61898;BME280;47850;50.274;18.908;2023-02-15T00:23:00;99748.20;;;1.89;81.46
61898;BME280;47850;50.274;18.908;2023-02-15T00:25:28;99743.19;;;1.89;81.52
61898;BME280;47850;50.274;18.908;2023-02-15T00:27:56;99741.61;;;1.90;81.72
61898;BME280;47850;50.274;18.908;2023-02-15T00:30:24;99735.27;;;1.91;81.68
61898;BME280;47850;50.274;18.908;2023-02-15T00:32:51;99730.27;;;1.91;81.56
61898;BME280;47850;50.274;18.908;2023-02-15T00:35:19;99725.99;;;1.90;81.64
61898;BME280;47850;50.274;18.908;2023-02-15T00:37:47;99726.77;;;1.91;81.72
61898;BME280;47850;50.274;18.908;2023-02-15T00:40:15;99727.48;;;1.91;81.65
61898;BME280;47850;50.274;18.908;2023-02-15T00:42:42;99721.16;;;1.89;81.68
61898;BME280;47850;50.274;18.908;2023-02-15T00:45:10;99715.91;;;1.86;81.72
61898;BME280;47850;50.274;18.908;2023-02-15T00:47:38;99712.77;;;1.82;81.99
61898;BME280;47850;50.274;18.908;2023-02-15T00:50:06;99713.05;;;1.78;81.97
61898;BME280;47850;50.274;18.908;2023-02-15T00:52:34;99710.34;;;1.78;82.26
61898;BME280;47850;50.274;18.908;2023-02-15T00:55:02;99711.25;;;1.77;82.16
61898;BME280;47850;50.274;18.908;2023-02-15T00:57:30;99709.49;;;1.78;82.16
61898;BME280;47850;50.274;18.908;2023-02-15T00:59:57;99706.32;;;1.78;82.15
61898;BME280;47850;50.274;18.908;2023-02-15T01:02:25;99698.30;;;1.76;82.10
61898;BME280;47850;50.274;18.908;2023-02-15T01:04:53;99699.02;;;1.76;82.28
61898;BME280;47850;50.274;18.908;2023-02-15T01:07:21;99702.55;;;1.76;82.37
61898;BME280;47850;50.274;18.908;2023-02-15T01:09:49;99707.36;;;1.77;82.53
61898;BME280;47850;50.274;18.908;2023-02-15T01:12:16;99706.43;;;1.78;82.56
61898;BME280;47850;50.274;18.908;2023-02-15T01:14:44;99709.04;;;1.79;82.55
61898;BME280;47850;50.274;18.908;2023-02-15T01:17:12;99712.27;;;1.79;82.40
61898;BME280;47850;50.274;18.908;2023-02-15T01:19:40;99710.31;;;1.79;82.48
61898;BME280;47850;50.274;18.908;2023-02-15T01:22:07;99703.11;;;1.79;82.67
61898;BME280;47850;50.274;18.908;2023-02-15T01:24:35;99697.27;;;1.77;82.46
61898;BME280;47850;50.274;18.908;2023-02-15T01:27:03;99692.33;;;1.74;82.46
61898;BME280;47850;50.274;18.908;2023-02-15T01:29:31;99693.21;;;1.71;82.53
61898;BME280;47850;50.274;18.908;2023-02-15T01:31:59;99692.32;;;1.70;82.50
61898;BME280;47850;50.274;18.908;2023-02-15T01:34:29;99686.96;;;1.69;82.46
61898;BME280;47850;50.274;18.908;2023-02-15T01:36:56;99679.94;;;1.68;82.32
61898;BME280;47850;50.274;18.908;2023-02-15T01:39:24;99674.88;;;1.66;82.21
61898;BME280;47850;50.274;18.908;2023-02-15T01:41:52;99670.14;;;1.64;82.37
61898;BME280;47850;50.274;18.908;2023-02-15T01:47:16;99665.36;;;1.62;82.64
61898;BME280;47850;50.274;18.908;2023-02-15T01:49:46;99662.79;;;1.59;82.55
61898;BME280;47850;50.274;18.908;2023-02-15T01:52:17;99655.63;;;1.55;82.62
61898;BME280;47850;50.274;18.908;2023-02-15T01:54:47;99653.52;;;1.51;82.67
61898;BME280;47850;50.274;18.908;2023-02-15T01:57:18;99649.91;;;1.48;82.73
61898;BME280;47850;50.274;18.908;2023-02-15T01:59:53;99649.54;;;1.45;82.90
61898;BME280;47850;50.274;18.908;2023-02-15T02:02:23;99652.57;;;1.42;82.91
61898;BME280;47850;50.274;18.908;2023-02-15T02:04:58;99654.14;;;1.39;82.86
61898;BME280;47850;50.274;18.908;2023-02-15T02:07:29;99652.84;;;1.36;82.95
61898;BME280;47850;50.274;18.908;2023-02-15T02:09:59;99645.35;;;1.33;83.27
61898;BME280;47850;50.274;18.908;2023-02-15T02:12:27;99641.56;;;1.31;83.40
61898;BME280;47850;50.274;18.908;2023-02-15T02:14:55;99636.70;;;1.30;83.35
61898;BME280;47850;50.274;18.908;2023-02-15T02:23:18;99622.13;;;1.22;83.62
61898;BME280;47850;50.274;18.908;2023-02-15T02:31:33;99623.67;;;1.17;84.06
61898;BME280;47850;50.274;18.908;2023-02-15T02:47:10;99596.95;;;1.15;84.57
61898;BME280;47850;50.274;18.908;2023-02-15T02:49:41;99591.55;;;1.12;84.69
61898;BME280;47850;50.274;18.908;2023-02-15T02:55:00;99592.75;;;1.10;84.98
61898;BME280;47850;50.274;18.908;2023-02-15T02:57:30;99590.35;;;1.09;85.12
61898;BME280;47850;50.274;18.908;2023-02-15T03:00:02;99590.56;;;1.09;85.13
61898;BME280;47850;50.274;18.908;2023-02-15T03:02:37;99583.13;;;1.07;85.25
61898;BME280;47850;50.274;18.908;2023-02-15T03:05:13;99584.15;;;1.05;85.35
61898;BME280;47850;50.274;18.908;2023-02-15T03:07:47;99577.31;;;1.03;85.33
61898;BME280;47850;50.274;18.908;2023-02-15T03:10:20;99577.24;;;1.01;85.73
61898;BME280;47850;50.274;18.908;2023-02-15T03:12:50;99577.43;;;0.98;85.92
61898;BME280;47850;50.274;18.908;2023-02-15T03:15:24;99581.22;;;0.95;86.14
61898;BME280;47850;50.274;18.908;2023-02-15T03:17:56;99582.42;;;0.94;86.02
61898;BME280;47850;50.274;18.908;2023-02-15T03:20:28;99577.77;;;0.94;86.17
61898;BME280;47850;50.274;18.908;2023-02-15T03:23:02;99578.73;;;0.93;86.14
61898;BME280;47850;50.274;18.908;2023-02-15T03:25:39;99579.39;;;0.92;86.25
61898;BME280;47850;50.274;18.908;2023-02-15T03:28:12;99579.67;;;0.94;86.32
61898;BME280;47850;50.274;18.908;2023-02-15T03:30:43;99580.20;;;0.94;86.53
61898;BME280;47850;50.274;18.908;2023-02-15T03:33:13;99580.88;;;0.93;86.53
61898;BME280;47850;50.274;18.908;2023-02-15T03:35:50;99583.77;;;0.93;86.55
61898;BME280;47850;50.274;18.908;2023-02-15T03:38:26;99580.80;;;0.92;86.48
61898;BME280;47850;50.274;18.908;2023-02-15T03:40:58;99581.13;;;0.91;86.53
61898;BME280;47850;50.274;18.908;2023-02-15T03:46:48;99583.35;;;0.89;86.43
61898;BME280;47850;50.274;18.908;2023-02-15T03:49:26;99586.08;;;0.89;86.57
61898;BME280;47850;50.274;18.908;2023-02-15T03:51:58;99593.36;;;0.88;86.58
61898;BME280;47850;50.274;18.908;2023-02-15T03:54:29;99592.06;;;0.90;86.86
61898;BME280;47850;50.274;18.908;2023-02-15T03:57:20;99595.96;;;0.92;86.79
61898;BME280;47850;50.274;18.908;2023-02-15T04:00:14;99597.89;;;0.93;86.63
61898;BME280;47850;50.274;18.908;2023-02-15T04:05:50;99594.59;;;0.90;86.93
61898;BME280;47850;50.274;18.908;2023-02-15T04:08:18;99594.45;;;0.91;86.89
61898;BME280;47850;50.274;18.908;2023-02-15T04:10:46;99592.34;;;0.91;86.83
61898;BME280;47850;50.274;18.908;2023-02-15T04:13:29;99590.63;;;0.94;86.71
61898;BME280;47850;50.274;18.908;2023-02-15T04:15:57;99593.00;;;0.94;86.78
61898;BME280;47850;50.274;18.908;2023-02-15T04:18:37;99592.13;;;0.92;86.84
61898;BME280;47850;50.274;18.908;2023-02-15T04:21:26;99592.39;;;0.90;86.88
61898;BME280;47850;50.274;18.908;2023-02-15T04:24:13;99586.77;;;0.89;86.89
61898;BME280;47850;50.274;18.908;2023-02-15T04:27:00;99584.39;;;0.87;86.90
61898;BME280;47850;50.274;18.908;2023-02-15T04:29:30;99588.31;;;0.85;86.94
61898;BME280;47850;50.274;18.908;2023-02-15T04:32:00;99593.79;;;0.84;86.94
61898;BME280;47850;50.274;18.908;2023-02-15T04:34:28;99592.46;;;0.82;87.02
61898;BME280;47850;50.274;18.908;2023-02-15T04:36:56;99593.84;;;0.81;87.10
61898;BME280;47850;50.274;18.908;2023-02-15T04:39:23;99591.85;;;0.81;87.09
61898;BME280;47850;50.274;18.908;2023-02-15T04:41:51;99593.71;;;0.82;87.36
61898;BME280;47850;50.274;18.908;2023-02-15T04:44:19;99597.20;;;0.83;87.31
61898;BME280;47850;50.274;18.908;2023-02-15T04:46:47;99597.13;;;0.83;87.31
61898;BME280;47850;50.274;18.908;2023-02-15T04:49:15;99595.73;;;0.80;87.26
61898;BME280;47850;50.274;18.908;2023-02-15T04:51:42;99589.42;;;0.79;87.42
61898;BME280;47850;50.274;18.908;2023-02-15T04:54:10;99590.30;;;0.78;87.50
61898;BME280;47850;50.274;18.908;2023-02-15T04:56:39;99587.73;;;0.76;87.62
61898;BME280;47850;50.274;18.908;2023-02-15T04:59:09;99585.51;;;0.74;87.64
61898;BME280;47850;50.274;18.908;2023-02-15T05:01:37;99585.64;;;0.72;87.76
61898;BME280;47850;50.274;18.908;2023-02-15T05:04:05;99588.33;;;0.68;87.74
61898;BME280;47850;50.274;18.908;2023-02-15T05:06:33;99587.38;;;0.69;87.81
61898;BME280;47850;50.274;18.908;2023-02-15T05:09:01;99588.50;;;0.71;88.17
61898;BME280;47850;50.274;18.908;2023-02-15T05:11:28;99586.84;;;0.72;88.08
61898;BME280;47850;50.274;18.908;2023-02-15T05:13:56;99593.58;;;0.71;87.95
61898;BME280;47850;50.274;18.908;2023-02-15T05:16:24;99593.59;;;0.70;87.90
61898;BME280;47850;50.274;18.908;2023-02-15T05:18:53;99595.15;;;0.70;88.13
61898;BME280;47850;50.274;18.908;2023-02-15T05:21:20;99590.73;;;0.70;87.88
61898;BME280;47850;50.274;18.908;2023-02-15T05:23:48;99589.09;;;0.70;88.10
61898;BME280;47850;50.274;18.908;2023-02-15T05:26:19;99586.67;;;0.70;88.11
61898;BME280;47850;50.274;18.908;2023-02-15T05:29:07;99583.91;;;0.69;88.29
61898;BME280;47850;50.274;18.908;2023-02-15T05:31:35;99584.74;;;0.70;88.28
61898;BME280;47850;50.274;18.908;2023-02-15T05:34:03;99583.30;;;0.72;88.28
61898;BME280;47850;50.274;18.908;2023-02-15T05:36:31;99584.70;;;0.72;88.31
61898;BME280;47850;50.274;18.908;2023-02-15T05:38:59;99585.02;;;0.72;88.23
61898;BME280;47850;50.274;18.908;2023-02-15T05:41:27;99585.89;;;0.73;88.26
61898;BME280;47850;50.274;18.908;2023-02-15T05:43:55;99584.38;;;0.71;88.34
61898;BME280;47850;50.274;18.908;2023-02-15T05:46:24;99586.10;;;0.69;88.55
61898;BME280;47850;50.274;18.908;2023-02-15T05:48:52;99582.60;;;0.67;88.66
61898;BME280;47850;50.274;18.908;2023-02-15T05:51:19;99584.06;;;0.64;88.67
61898;BME280;47850;50.274;18.908;2023-02-15T05:53:47;99583.61;;;0.62;88.75
61898;BME280;47850;50.274;18.908;2023-02-15T05:56:15;99583.61;;;0.61;88.81
61898;BME280;47850;50.274;18.908;2023-02-15T05:58:43;99585.09;;;0.61;89.01
61898;BME280;47850;50.274;18.908;2023-02-15T06:01:17;99585.65;;;0.60;88.91
61898;BME280;47850;50.274;18.908;2023-02-15T06:03:45;99583.18;;;0.60;89.10
61898;BME280;47850;50.274;18.908;2023-02-15T06:06:13;99583.19;;;0.59;89.32
61898;BME280;47850;50.274;18.908;2023-02-15T06:08:41;99582.09;;;0.56;89.43
61898;BME280;47850;50.274;18.908;2023-02-15T06:11:09;99583.32;;;0.54;89.40
61898;BME280;47850;50.274;18.908;2023-02-15T06:13:37;99582.27;;;0.55;89.47
61898;BME280;47850;50.274;18.908;2023-02-15T06:16:06;99581.48;;;0.56;89.62
61898;BME280;47850;50.274;18.908;2023-02-15T06:18:34;99582.29;;;0.58;89.64
61898;BME280;47850;50.274;18.908;2023-02-15T06:21:01;99581.96;;;0.58;89.67
61898;BME280;47850;50.274;18.908;2023-02-15T06:23:29;99583.66;;;0.57;89.72
61898;BME280;47850;50.274;18.908;2023-02-15T06:25:57;99592.41;;;0.58;89.75
61898;BME280;47850;50.274;18.908;2023-02-15T06:28:25;99593.27;;;0.60;89.77
61898;BME280;47850;50.274;18.908;2023-02-15T06:30:53;99593.88;;;0.60;89.81
61898;BME280;47850;50.274;18.908;2023-02-15T06:33:21;99599.24;;;0.59;89.60
61898;BME280;47850;50.274;18.908;2023-02-15T06:35:49;99597.97;;;0.59;89.75
61898;BME280;47850;50.274;18.908;2023-02-15T06:38:17;99599.16;;;0.60;89.87
61898;BME280;47850;50.274;18.908;2023-02-15T06:40:45;99603.25;;;0.61;89.82
61898;BME280;47850;50.274;18.908;2023-02-15T06:43:12;99603.88;;;0.64;89.97
61898;BME280;47850;50.274;18.908;2023-02-15T06:45:41;99601.35;;;0.67;89.81
61898;BME280;47850;50.274;18.908;2023-02-15T06:48:09;99598.13;;;0.69;89.82
61898;BME280;47850;50.274;18.908;2023-02-15T06:50:39;99597.90;;;0.69;89.73
61898;BME280;47850;50.274;18.908;2023-02-15T06:53:07;99598.47;;;0.70;89.89
61898;BME280;47850;50.274;18.908;2023-02-15T06:55:34;99597.45;;;0.70;89.81
61898;BME280;47850;50.274;18.908;2023-02-15T06:58:02;99598.00;;;0.68;89.66
61898;BME280;47850;50.274;18.908;2023-02-15T07:00:30;99594.56;;;0.68;89.74
61898;BME280;47850;50.274;18.908;2023-02-15T07:02:58;99589.46;;;0.70;89.92
61898;BME280;47850;50.274;18.908;2023-02-15T07:05:27;99587.05;;;0.73;89.75
61898;BME280;47850;50.274;18.908;2023-02-15T07:07:59;99587.79;;;0.78;89.79
61898;BME280;47850;50.274;18.908;2023-02-15T07:10:27;99587.85;;;0.81;89.57
61898;BME280;47850;50.274;18.908;2023-02-15T07:12:55;99587.99;;;0.83;89.49
61898;BME280;47850;50.274;18.908;2023-02-15T07:15:23;99587.48;;;0.88;89.48
61898;BME280;47850;50.274;18.908;2023-02-15T07:17:52;99590.60;;;0.91;89.55
61898;BME280;47850;50.274;18.908;2023-02-15T07:20:21;99589.21;;;0.93;89.38
61898;BME280;47850;50.274;18.908;2023-02-15T07:22:50;99587.88;;;0.96;89.12
61898;BME280;47850;50.274;18.908;2023-02-15T07:25:18;99590.05;;;1.03;89.27
61898;BME280;47850;50.274;18.908;2023-02-15T07:27:46;99585.89;;;1.09;89.25
61898;BME280;47850;50.274;18.908;2023-02-15T07:30:16;99585.23;;;1.16;89.01
61898;BME280;47850;50.274;18.908;2023-02-15T07:32:44;99583.21;;;1.20;88.65
61898;BME280;47850;50.274;18.908;2023-02-15T07:35:30;99579.58;;;1.23;88.48
61898;BME280;47850;50.274;18.908;2023-02-15T07:37:58;99577.19;;;1.26;88.17
61898;BME280;47850;50.274;18.908;2023-02-15T07:40:26;99577.73;;;1.30;88.09
61898;BME280;47850;50.274;18.908;2023-02-15T07:42:57;99576.27;;;1.32;87.90
61898;BME280;47850;50.274;18.908;2023-02-15T07:45:26;99574.16;;;1.34;87.68
61898;BME280;47850;50.274;18.908;2023-02-15T07:47:54;99575.36;;;1.39;87.77
61898;BME280;47850;50.274;18.908;2023-02-15T07:50:22;99571.05;;;1.43;87.63
61898;BME280;47850;50.274;18.908;2023-02-15T07:52:50;99569.20;;;1.47;87.39
61898;BME280;47850;50.274;18.908;2023-02-15T07:55:18;99566.75;;;1.50;87.22
61898;BME280;47850;50.274;18.908;2023-02-15T07:57:47;99565.08;;;1.55;87.32
61898;BME280;47850;50.274;18.908;2023-02-15T08:00:18;99564.14;;;1.64;87.06
61898;BME280;47850;50.274;18.908;2023-02-15T08:02:54;99559.77;;;1.73;86.87
61898;BME280;47850;50.274;18.908;2023-02-15T08:05:48;99561.80;;;1.83;86.43
61898;BME280;47850;50.274;18.908;2023-02-15T08:08:16;99560.27;;;1.90;86.43
61898;BME280;47850;50.274;18.908;2023-02-15T08:13:48;99559.39;;;2.07;85.86
61898;BME280;47850;50.274;18.908;2023-02-15T08:16:29;99553.59;;;2.13;85.62
61898;BME280;47850;50.274;18.908;2023-02-15T08:18:59;99554.27;;;2.18;85.27
61898;BME280;47850;50.274;18.908;2023-02-15T08:21:28;99553.98;;;2.22;84.88
61898;BME280;47850;50.274;18.908;2023-02-15T08:23:57;99548.79;;;2.27;84.86
61898;BME280;47850;50.274;18.908;2023-02-15T08:26:26;99551.23;;;2.34;84.99
61898;BME280;47850;50.274;18.908;2023-02-15T08:28:55;99550.02;;;2.40;84.36
61898;BME280;47850;50.274;18.908;2023-02-15T08:31:24;99551.08;;;2.37;84.01
61898;BME280;47850;50.274;18.908;2023-02-15T08:33:56;99549.85;;;2.33;83.92
61898;BME280;47850;50.274;18.908;2023-02-15T08:36:29;99546.98;;;2.32;84.19
61898;BME280;47850;50.274;18.908;2023-02-15T08:38:58;99545.43;;;2.32;84.29
61898;BME280;47850;50.274;18.908;2023-02-15T08:41:28;99540.76;;;2.29;84.10
61898;BME280;47850;50.274;18.908;2023-02-15T08:43:59;99541.23;;;2.25;84.34
61898;BME280;47850;50.274;18.908;2023-02-15T08:46:28;99544.52;;;2.24;84.72
61898;BME280;47850;50.274;18.908;2023-02-15T08:48:57;99541.83;;;2.22;84.72
61898;BME280;47850;50.274;18.908;2023-02-15T08:51:32;99541.02;;;2.22;84.69
61898;BME280;47850;50.274;18.908;2023-02-15T08:54:05;99538.83;;;2.22;84.55
61898;BME280;47850;50.274;18.908;2023-02-15T08:56:36;99535.91;;;2.22;84.72
61898;BME280;47850;50.274;18.908;2023-02-15T08:59:05;99531.27;;;2.24;84.82
61898;BME280;47850;50.274;18.908;2023-02-15T09:01:34;99528.68;;;2.26;84.83
61898;BME280;47850;50.274;18.908;2023-02-15T09:04:05;99528.80;;;2.31;84.87
61898;BME280;47850;50.274;18.908;2023-02-15T09:06:35;99526.48;;;2.37;84.99
61898;BME280;47850;50.274;18.908;2023-02-15T09:09:03;99526.16;;;2.42;84.39
61898;BME280;47850;50.274;18.908;2023-02-15T09:11:35;99523.84;;;2.44;84.22
61898;BME280;47850;50.274;18.908;2023-02-15T09:14:06;99524.98;;;2.47;84.17
61898;BME280;47850;50.274;18.908;2023-02-15T09:16:37;99521.25;;;2.50;83.74
61898;BME280;47850;50.274;18.908;2023-02-15T09:19:05;99519.53;;;2.53;83.67
61898;BME280;47850;50.274;18.908;2023-02-15T09:21:36;99516.78;;;2.57;83.57
61898;BME280;47850;50.274;18.908;2023-02-15T09:24:07;99513.45;;;2.63;83.67
61898;BME280;47850;50.274;18.908;2023-02-15T09:26:37;99511.70;;;2.68;83.73
61898;BME280;47850;50.274;18.908;2023-02-15T09:29:05;99512.20;;;2.72;83.33
61898;BME280;47850;50.274;18.908;2023-02-15T09:31:38;99511.48;;;2.78;83.63
61898;BME280;47850;50.274;18.908;2023-02-15T09:34:08;99505.23;;;2.85;83.34
61898;BME280;47850;50.274;18.908;2023-02-15T09:36:38;99496.44;;;2.92;83.15
61898;BME280;47850;50.274;18.908;2023-02-15T09:39:28;99495.73;;;3.01;82.84
61898;BME280;47850;50.274;18.908;2023-02-15T09:42:41;99493.66;;;3.09;81.45
61898;BME280;47850;50.274;18.908;2023-02-15T09:45:37;99488.73;;;3.20;81.74
61898;BME280;47850;50.274;18.908;2023-02-15T09:54:03;99475.60;;;3.52;81.02
61898;BME280;47850;50.274;18.908;2023-02-15T09:56:53;99473.23;;;3.66;80.78
61898;BME280;47850;50.274;18.908;2023-02-15T09:59:51;99469.10;;;3.80;80.24
61898;BME280;47850;50.274;18.908;2023-02-15T10:05:32;99473.61;;;4.10;78.43
61898;BME280;47850;50.274;18.908;2023-02-15T10:17:34;99469.02;;;4.48;75.81
61898;BME280;47850;50.274;18.908;2023-02-15T10:31:28;99453.55;;;4.90;74.15
61898;BME280;47850;50.274;18.908;2023-02-15T10:34:18;99451.38;;;4.97;73.70
61898;BME280;47850;50.274;18.908;2023-02-15T10:40:14;99451.84;;;5.18;73.70
61898;BME280;47850;50.274;18.908;2023-02-15T10:50:57;99438.11;;;5.69;72.25
61898;BME280;47850;50.274;18.908;2023-02-15T10:56:24;99430.98;;;5.82;71.93
61898;BME280;47850;50.274;18.908;2023-02-15T11:07:44;99423.33;;;6.23;69.94
61898;BME280;47850;50.274;18.908;2023-02-15T11:10:19;99422.88;;;6.28;69.34
61898;BME280;47850;50.274;18.908;2023-02-15T11:12:50;99419.63;;;6.38;69.77
61898;BME280;47850;50.274;18.908;2023-02-15T11:18:21;99404.87;;;6.62;68.99
61898;BME280;47850;50.274;18.908;2023-02-15T11:20:58;99399.40;;;6.72;68.26
61898;BME280;47850;50.274;18.908;2023-02-15T11:23:30;99397.80;;;6.81;68.30
61898;BME280;47850;50.274;18.908;2023-02-15T11:26:02;99398.40;;;6.92;68.19
61898;BME280;47850;50.274;18.908;2023-02-15T11:28:38;99400.88;;;7.01;67.18
61898;BME280;47850;50.274;18.908;2023-02-15T11:31:26;99396.52;;;7.27;67.28
61898;BME280;47850;50.274;18.908;2023-02-15T11:34:04;99390.52;;;7.77;65.99
61898;BME280;47850;50.274;18.908;2023-02-15T11:36:40;99392.30;;;8.24;64.86
61898;BME280;47850;50.274;18.908;2023-02-15T11:39:15;99393.25;;;8.70;64.47
61898;BME280;47850;50.274;18.908;2023-02-15T11:41:47;99390.10;;;9.13;62.50
61898;BME280;47850;50.274;18.908;2023-02-15T11:44:32;99386.70;;;9.47;61.62
61898;BME280;47850;50.274;18.908;2023-02-15T11:47:02;99384.62;;;9.85;59.96
61898;BME280;47850;50.274;18.908;2023-02-15T11:49:32;99381.39;;;10.27;59.96
61898;BME280;47850;50.274;18.908;2023-02-15T11:52:05;99376.66;;;10.70;58.74
61898;BME280;47850;50.274;18.908;2023-02-15T11:54:36;99378.41;;;11.13;55.78
61898;BME280;47850;50.274;18.908;2023-02-15T11:57:16;99377.80;;;11.47;52.64
61898;BME280;47850;50.274;18.908;2023-02-15T11:59:52;99372.34;;;11.61;50.17
61898;BME280;47850;50.274;18.908;2023-02-15T12:02:22;99370.13;;;11.81;49.34
61898;BME280;47850;50.274;18.908;2023-02-15T12:04:59;99365.54;;;11.97;47.86
61898;BME280;47850;50.274;18.908;2023-02-15T12:07:40;99363.23;;;12.16;47.09
61898;BME280;47850;50.274;18.908;2023-02-15T12:10:20;99359.38;;;12.44;47.53
61898;BME280;47850;50.274;18.908;2023-02-15T12:13:10;99357.02;;;12.97;47.05
61898;BME280;47850;50.274;18.908;2023-02-15T12:15:43;99352.80;;;13.35;45.79
61898;BME280;47850;50.274;18.908;2023-02-15T12:18:37;99352.19;;;13.65;44.43
61898;BME280;47850;50.274;18.908;2023-02-15T12:21:09;99349.36;;;13.89;44.09
61898;BME280;47850;50.274;18.908;2023-02-15T12:23:50;99350.11;;;14.18;43.88
61898;BME280;47850;50.274;18.908;2023-02-15T12:26:27;99345.88;;;14.64;44.19
61898;BME280;47850;50.274;18.908;2023-02-15T12:28:59;99343.46;;;14.99;41.63
61898;BME280;47850;50.274;18.908;2023-02-15T12:31:39;99338.74;;;15.16;41.07
61898;BME280;47850;50.274;18.908;2023-02-15T12:34:37;99338.83;;;15.29;40.44
61898;BME280;47850;50.274;18.908;2023-02-15T12:37:16;99330.39;;;15.35;38.89
61898;BME280;47850;50.274;18.908;2023-02-15T12:39:56;99321.79;;;15.55;39.32
61898;BME280;47850;50.274;18.908;2023-02-15T12:42:26;99320.03;;;15.98;39.09
61898;BME280;47850;50.274;18.908;2023-02-15T12:45:02;99319.44;;;16.27;37.31
61898;BME280;47850;50.274;18.908;2023-02-15T12:47:31;99313.87;;;16.41;36.26
61898;BME280;47850;50.274;18.908;2023-02-15T12:50:13;99315.38;;;16.47;35.83
61898;BME280;47850;50.274;18.908;2023-02-15T12:52:49;99313.61;;;16.74;35.27
61898;BME280;47850;50.274;18.908;2023-02-15T12:55:24;99310.81;;;16.90;35.40
61898;BME280;47850;50.274;18.908;2023-02-15T12:58:16;99310.41;;;17.23;35.30
61898;BME280;47850;50.274;18.908;2023-02-15T13:01:16;99306.70;;;17.59;34.73
61898;BME280;47850;50.274;18.908;2023-02-15T13:04:05;99301.97;;;17.99;34.44
61898;BME280;47850;50.274;18.908;2023-02-15T13:06:35;99297.98;;;18.51;33.82
61898;BME280;47850;50.274;18.908;2023-02-15T13:09:20;99301.38;;;18.68;31.22
61898;BME280;47850;50.274;18.908;2023-02-15T13:11:50;99297.05;;;18.75;31.85
61898;BME280;47850;50.274;18.908;2023-02-15T13:14:30;99295.59;;;18.87;32.15
61898;BME280;47850;50.274;18.908;2023-02-15T13:17:01;99292.07;;;19.06;31.79
61898;BME280;47850;50.274;18.908;2023-02-15T13:19:44;99288.36;;;19.11;31.01
61898;BME280;47850;50.274;18.908;2023-02-15T13:22:16;99285.63;;;19.12;31.27
61898;BME280;47850;50.274;18.908;2023-02-15T13:24:56;99282.06;;;19.34;30.28
61898;BME280;47850;50.274;18.908;2023-02-15T13:27:35;99277.01;;;19.54;30.85
61898;BME280;47850;50.274;18.908;2023-02-15T13:30:23;99274.01;;;20.00;30.70
61898;BME280;47850;50.274;18.908;2023-02-15T13:32:57;99267.88;;;20.40;29.31
61898;BME280;47850;50.274;18.908;2023-02-15T13:35:36;99268.70;;;20.61;29.51
61898;BME280;47850;50.274;18.908;2023-02-15T13:40:53;99263.13;;;21.85;29.51
61898;BME280;47850;50.274;18.908;2023-02-15T13:46:25;99260.09;;;22.25;28.03
61898;BME280;47850;50.274;18.908;2023-02-15T13:51:45;99255.81;;;22.77;27.43
61898;BME280;47850;50.274;18.908;2023-02-15T14:03:27;99255.38;;;23.08;26.80
61898;BME280;47850;50.274;18.908;2023-02-15T14:06:36;99254.98;;;23.14;27.03
61898;BME280;47850;50.274;18.908;2023-02-15T14:09:16;99251.48;;;23.25;26.08
61898;BME280;47850;50.274;18.908;2023-02-15T14:12:15;99250.68;;;23.19;26.12
61898;BME280;47850;50.274;18.908;2023-02-15T14:15:09;99249.57;;;23.08;25.91
61898;BME280;47850;50.274;18.908;2023-02-15T14:25:53;99246.66;;;23.33;25.71
61898;BME280;47850;50.274;18.908;2023-02-15T14:31:02;99241.63;;;23.10;25.86
61898;BME280;47850;50.274;18.908;2023-02-15T14:33:46;99241.67;;;23.11;25.62
61898;BME280;47850;50.274;18.908;2023-02-15T14:36:21;99237.73;;;22.85;25.41
61898;BME280;47850;50.274;18.908;2023-02-15T14:41:59;99228.92;;;22.37;26.56
61898;BME280;47850;50.274;18.908;2023-02-15T14:47:36;99231.27;;;22.25;26.87
61898;BME280;47850;50.274;18.908;2023-02-15T14:50:38;99219.90;;;22.23;26.98
61898;BME280;47850;50.274;18.908;2023-02-15T14:58:38;99222.71;;;22.01;27.36
61898;BME280;47850;50.274;18.908;2023-02-15T15:01:30;99225.05;;;21.64;27.34
61898;BME280;47850;50.274;18.908;2023-02-15T15:04:02;99227.48;;;20.98;27.70
61898;BME280;47850;50.274;18.908;2023-02-15T15:06:33;99223.00;;;20.04;28.52
61898;BME280;47850;50.274;18.908;2023-02-15T15:09:21;99224.31;;;19.04;29.55
61898;BME280;47850;50.274;18.908;2023-02-15T15:11:54;99218.65;;;17.75;31.15
61898;BME280;47850;50.274;18.908;2023-02-15T15:17:01;99215.84;;;15.86;33.62
61898;BME280;47850;50.274;18.908;2023-02-15T15:22:23;99219.33;;;13.99;36.46
61898;BME280;47850;50.274;18.908;2023-02-15T15:24:57;99208.42;;;13.38;37.85
61898;BME280;47850;50.274;18.908;2023-02-15T15:27:43;99209.29;;;12.77;38.84
61898;BME280;47850;50.274;18.908;2023-02-15T15:35:34;99205.77;;;11.59;41.34
61898;BME280;47850;50.274;18.908;2023-02-15T15:46:39;99202.59;;;9.90;45.31
61898;BME280;47850;50.274;18.908;2023-02-15T15:49:15;99198.96;;;9.39;46.60
61898;BME280;47850;50.274;18.908;2023-02-15T15:51:45;99198.98;;;9.02;47.65
61898;BME280;47850;50.274;18.908;2023-02-15T15:54:17;99197.53;;;8.70;48.45
61898;BME280;47850;50.274;18.908;2023-02-15T15:56:49;99197.28;;;8.39;49.30
61898;BME280;47850;50.274;18.908;2023-02-15T15:59:24;99194.34;;;8.18;50.41
61898;BME280;47850;50.274;18.908;2023-02-15T16:01:53;99189.00;;;7.92;51.20